Espaço - Ciências - Fenômenos Naturais
Meteógrafos Informações Meteorológicas em tempo real

Aeroporto de Congonhas

Histórico do Tempo
Temperatura atual: 18 graus 64 F    Umidade relativa: 82 %
Velocidade do vento: 08 nós 14 Km/h    Direção: 180 graus S
Ajuste do altímetro ..: 1016 HPA
Visibilidade: Ótima    Tempo presente: Céu Limpo

Observação

Data Hora BRTTempo°CUmidadePressãoVentoVisib.
24/05 - 07:56   Céu Limpo 18° 82% 1016 Sul/14 km/h OK
24/05 - 06:56   Céu Limpo 19° 72% 1016 Sul-sudoeste/5 km/h OK
24/05 - 05:56   Céu Limpo 18° 77% 1014 Nordeste/9 km/h OK
24/05 - 04:56   Céu Limpo 18° 82% 1014 Este-nordeste/9 km/h CAVO
24/05 - 03:56   Não Disponível 18° 82% 1015 Leste/7 km/h 9999
24/05 - 02:56   Não Disponível 18° 82% 1016 Leste/10 km/h 9000
24/05 - 01:56   Não Disponível 18° 82% 1016 Este-sudeste/9 km/h OK
24/05 - 00:56   Poucas nuvens esparsas 18° 82% 1017 Sudeste/7 km/h OK
23/05 - 23:56   Não Disponível 19° 77% 1018 Este-sudeste/7 km/h 9999
23/05 - 22:56   Parcialmente Nublado 19° 82% 1018 Leste/9 km/h 9999
23/05 - 21:56   Céu Encoberto 18° 88% 1019 Sul-sudeste/14 km/h 9000
23/05 - 20:56   Céu Limpo 20° 77% 1018 Sul-sudeste/10 km/h OK
23/05 - 19:56   Céu Limpo 20° 77% 1018 Sul-sudeste/10 km/h OK
23/05 - 18:56   Céu Limpo 20° 82% 1017 Sul-sudeste/12 km/h OK
23/05 - 17:56   Céu Limpo 24° 38% 1017 Oeste/7 km/h CAVO
23/05 - 16:56   Céu Limpo 25° 34% 1016 Oeste/9 km/h OK
23/05 - 15:56   Céu Limpo 25° 36% 1016 Oeste-noroeste/9 km/h CAVO
23/05 - 14:56   Céu Limpo 26° 36% 1016 Norte-noroeste/12 km/h CAVO
23/05 - 13:56   Céu Limpo 26° 36% 1016 Norte-noroeste/12 km/h CAVO
23/05 - 12:56   Céu Limpo 25° 41% 1019 Oeste-noroeste/14 km/h CAVO
23/05 - 11:56   Céu Limpo 25° 41% 1019 Oeste-noroeste/14 km/h CAVO
23/05 - 10:56   Céu Limpo 23° 46% 1019 Noroeste/12 km/h CAVO
23/05 - 09:56   Céu Limpo 22° 53% 1020 Norte/12 km/h OK
23/05 - 08:56   Céu Limpo 20° 64% 1019 /5 km/h OK


Apolo11.com - Todos os direitos reservados - 2000 - 2019
Política de Privacidade   |     Termo de Uso e Licenciamento   |  -   Entre em Contato

"Política é a guerra sem sangue enquanto a guerra é a política com sangue" - Mao Tsé-Tung